Omno-Gobi, Mongolia
Current Conditions -  °F | °C
As of 7:30 PM on Saturday 01 Nov 2014 (Local Time) from UNAA Reporting Station
Broken Clouds Broken Clouds  
Wind Chill: 39°   Ceiling: 10000
Heat Index: 43°   Visibility: 6mi
Dew Point: 30°   Wind: 7mph
Humidity: 61%   Direction: 200°SSW
Pressure: 30.18"   Gusts: NA
Location:  49.02°N, 91.72°E
Report Text: UNAA 011130Z 20003MPS 9999 SCT026CB BKN100 06/M01 Q1022 NOSIGRMK QFE744 20190055
Loading
Personal Weather Stations






























Interactive Weather Map
Tropical Storm Tracking
New forecast layout! Learn more

10-Day Weather Forecast

Advertisements
Track Severe Weather on mobile